createdAt,value
2023-03-06T00:02:12.883Z,1.72
2023-03-06T00:04:40.054Z,1.78
2023-03-06T00:07:07.329Z,1.81
2023-03-06T00:09:34.474Z,1.81
2023-03-06T00:12:01.680Z,1.82
2023-03-06T00:14:30.215Z,1.78
2023-03-06T00:16:57.485Z,1.77
2023-03-06T00:19:24.659Z,1.82
2023-03-06T00:21:51.879Z,1.85
2023-03-06T00:24:19.035Z,1.78
2023-03-06T00:26:46.491Z,1.83
2023-03-06T00:29:13.775Z,1.84
2023-03-06T00:31:42.368Z,1.84
2023-03-06T00:34:09.648Z,1.84
2023-03-06T00:36:36.866Z,1.83
2023-03-06T00:39:04.064Z,1.81
2023-03-06T00:41:31.267Z,1.81
2023-03-06T00:43:58.551Z,1.81
2023-03-06T00:46:25.797Z,1.77
2023-03-06T00:48:54.310Z,1.77
2023-03-06T00:51:21.699Z,1.75
2023-03-06T00:53:48.921Z,1.73
2023-03-06T00:56:17.899Z,1.71
2023-03-06T00:58:46.134Z,1.68
2023-03-06T01:01:13.464Z,1.71
2023-03-06T01:03:40.766Z,1.66
2023-03-06T01:06:09.502Z,1.72
2023-03-06T01:08:36.704Z,1.72
2023-03-06T01:11:03.988Z,1.72
2023-03-06T01:13:31.259Z,1.69
2023-03-06T01:16:06.273Z,1.69
2023-03-06T01:18:33.530Z,1.68
2023-03-06T01:21:02.511Z,1.65
2023-03-06T01:23:31.121Z,1.65
2023-03-06T01:25:58.781Z,1.66
2023-03-06T01:28:26.708Z,1.70
2023-03-06T01:30:54.361Z,1.72
2023-03-06T01:33:21.681Z,1.63
2023-03-06T01:35:48.986Z,1.60
2023-03-06T01:38:16.238Z,1.54
2023-03-06T01:40:45.284Z,1.42
2023-03-06T01:43:26.523Z,1.34
2023-03-06T01:46:35.265Z,1.36
2023-03-06T01:49:06.671Z,1.32
2023-03-06T01:51:38.241Z,1.33
2023-03-06T01:54:10.190Z,1.20
2023-03-06T01:56:40.868Z,1.20
2023-03-06T01:59:08.177Z,1.19
2023-03-06T02:01:38.240Z,1.26
2023-03-06T02:04:05.902Z,1.31
2023-03-06T02:06:35.640Z,1.32
2023-03-06T02:09:05.012Z,1.28
2023-03-06T02:11:32.215Z,1.35
2023-03-06T02:14:01.367Z,1.36
2023-03-06T02:16:30.635Z,1.40
2023-03-06T02:19:00.341Z,1.37
2023-03-06T02:21:32.073Z,1.39
2023-03-06T02:24:08.539Z,1.42
2023-03-06T02:26:39.006Z,1.45
2023-03-06T02:29:08.824Z,1.43
2023-03-06T02:31:36.086Z,1.41
2023-03-06T02:34:07.743Z,1.42
2023-03-06T02:36:40.116Z,1.38
2023-03-06T02:39:07.771Z,1.37
2023-03-06T02:41:36.939Z,1.38
2023-03-06T02:44:04.187Z,1.38
2023-03-06T02:46:31.380Z,1.38
2023-03-06T02:48:58.584Z,1.39
2023-03-06T02:51:26.305Z,1.41
2023-03-06T02:53:53.562Z,1.45
2023-03-06T02:56:22.127Z,1.46
2023-03-06T02:58:50.847Z,1.45
2023-03-06T03:01:18.393Z,1.42
2023-03-06T03:03:45.691Z,1.42
2023-03-06T03:06:14.470Z,1.38
2023-03-06T03:08:42.882Z,1.41
2023-03-06T03:11:10.561Z,1.45
2023-03-06T03:13:40.490Z,1.43
2023-03-06T03:16:15.337Z,1.34
2023-03-06T03:18:43.583Z,1.35
2023-03-06T03:21:13.879Z,1.34
2023-03-06T03:23:41.489Z,1.36
2023-03-06T03:26:10.079Z,1.33
2023-03-06T03:28:40.150Z,1.29
2023-03-06T03:31:09.769Z,1.29
2023-03-06T03:33:38.667Z,1.32
2023-03-06T03:36:07.551Z,1.25
2023-03-06T03:38:38.726Z,1.21
2023-03-06T03:41:06.302Z,1.15
2023-03-06T03:43:34.191Z,1.14
2023-03-06T03:46:01.651Z,1.08
2023-03-06T03:48:29.289Z,1.06
2023-03-06T03:51:05.053Z,1.06
2023-03-06T03:53:33.237Z,0.99
2023-03-06T03:56:00.614Z,1.00
2023-03-06T03:58:27.988Z,0.98
2023-03-06T04:00:55.305Z,1.02
2023-03-06T04:03:23.422Z,1.04
2023-03-06T04:05:50.996Z,1.07
2023-03-06T04:08:19.546Z,1.06
2023-03-06T04:10:48.583Z,1.05
2023-03-06T04:13:17.326Z,1.07
2023-03-06T04:15:46.166Z,1.04
2023-03-06T04:18:13.497Z,0.96
2023-03-06T04:20:40.860Z,1.01
2023-03-06T04:23:08.116Z,0.96
2023-03-06T04:25:36.897Z,0.92
2023-03-06T04:28:07.590Z,0.93
2023-03-06T04:30:35.258Z,0.91
2023-03-06T04:33:03.774Z,0.89
2023-03-06T04:35:30.993Z,0.92
2023-03-06T04:38:02.750Z,0.88
2023-03-06T04:40:33.438Z,0.88
2023-03-06T04:43:02.832Z,0.90
2023-03-06T04:45:31.234Z,0.87
2023-03-06T04:47:59.104Z,0.83
2023-03-06T04:50:27.151Z,0.86
2023-03-06T04:52:54.545Z,0.85
2023-03-06T04:55:21.685Z,0.88
2023-03-06T04:57:49.101Z,0.84
2023-03-06T05:00:20.367Z,0.88
2023-03-06T05:02:48.158Z,0.88
2023-03-06T05:05:16.884Z,0.80
2023-03-06T05:07:44.635Z,0.85
2023-03-06T05:10:14.704Z,0.82
2023-03-06T05:12:42.103Z,0.80
2023-03-06T05:15:10.923Z,0.72
2023-03-06T05:17:39.523Z,0.71
2023-03-06T05:20:11.748Z,0.72
2023-03-06T05:22:39.140Z,0.72
2023-03-06T05:25:07.727Z,0.70
2023-03-06T05:27:34.928Z,0.70
2023-03-06T05:30:02.474Z,0.70
2023-03-06T05:32:29.702Z,0.72
2023-03-06T05:34:58.283Z,0.72
2023-03-06T05:37:25.650Z,0.73
2023-03-06T05:39:53.044Z,0.73
2023-03-06T05:42:20.434Z,0.75
2023-03-06T05:44:47.610Z,0.72
2023-03-06T05:47:14.822Z,0.67
2023-03-06T05:49:42.037Z,0.70
2023-03-06T05:52:11.842Z,0.73
2023-03-06T05:54:39.014Z,0.73
2023-03-06T05:57:06.386Z,0.67
2023-03-06T05:59:33.571Z,0.63
2023-03-06T06:02:00.973Z,0.63
2023-03-06T06:04:28.387Z,0.67
2023-03-06T06:06:57.223Z,0.64
2023-03-06T06:09:27.109Z,0.68
2023-03-06T06:11:56.753Z,0.72
2023-03-06T06:14:24.176Z,0.77
2023-03-06T06:16:52.075Z,0.80
2023-03-06T06:19:19.237Z,0.85
2023-03-06T06:21:47.405Z,0.85
2023-03-06T06:24:15.575Z,0.88
2023-03-06T06:26:44.564Z,0.89
2023-03-06T06:29:12.939Z,0.89
2023-03-06T06:31:40.787Z,0.97
2023-03-06T06:34:10.029Z,0.97
2023-03-06T06:36:38.083Z,1.05
2023-03-06T06:39:06.114Z,1.10
2023-03-06T06:41:51.027Z,1.18
2023-03-06T06:44:22.418Z,1.17
2023-03-06T06:49:37.587Z,1.34
2023-03-06T06:52:05.738Z,1.36
2023-03-06T06:54:33.967Z,1.39
2023-03-06T06:57:01.216Z,1.39
2023-03-06T06:59:29.813Z,1.39
2023-03-06T07:01:56.998Z,1.41
2023-03-06T07:04:24.243Z,1.50
2023-03-06T07:06:54.668Z,1.52
2023-03-06T07:09:21.868Z,1.51
2023-03-06T07:11:49.163Z,1.56
2023-03-06T07:14:16.539Z,1.55
2023-03-06T07:16:45.307Z,1.49
2023-03-06T07:19:12.573Z,1.49
2023-03-06T07:21:39.892Z,1.47
2023-03-06T07:24:07.327Z,1.38
2023-03-06T07:26:35.003Z,1.39
2023-03-06T07:29:03.759Z,1.41
2023-03-06T07:31:31.086Z,1.34
2023-03-06T07:33:59.857Z,1.38
2023-03-06T07:36:27.372Z,1.41
2023-03-06T07:38:54.575Z,1.44
2023-03-06T07:41:22.721Z,1.54
2023-03-06T07:43:50.333Z,1.58
2023-03-06T07:46:17.821Z,1.64
2023-03-06T07:48:45.079Z,1.63
2023-03-06T07:51:15.578Z,1.75
2023-03-06T07:53:43.453Z,1.88
2023-03-06T07:56:11.539Z,1.92
2023-03-06T07:58:40.649Z,2.01
2023-03-06T08:01:09.678Z,2.02
2023-03-06T08:03:37.107Z,2.14
2023-03-06T08:06:06.284Z,2.21
2023-03-06T08:08:35.116Z,2.37
2023-03-06T08:11:02.613Z,2.36
2023-03-06T08:13:29.788Z,2.46
2023-03-06T08:15:57.147Z,2.54
2023-03-06T08:18:24.355Z,2.51
2023-03-06T08:21:00.413Z,2.58
2023-03-06T08:23:27.582Z,2.73
2023-03-06T08:25:57.451Z,2.92
2023-03-06T08:28:24.723Z,2.97
2023-03-06T08:30:52.069Z,3.02
2023-03-06T08:33:19.353Z,3.11
2023-03-06T08:35:47.402Z,3.11
2023-03-06T08:38:14.851Z,3.22
2023-03-06T08:40:42.132Z,3.31
2023-03-06T08:43:13.066Z,3.54
2023-03-06T08:45:41.365Z,3.50
2023-03-06T08:48:08.547Z,3.56
2023-03-06T08:50:35.892Z,3.78
2023-03-06T08:53:03.217Z,3.85
2023-03-06T08:55:30.491Z,3.83
2023-03-06T08:57:57.622Z,3.67
2023-03-06T09:00:26.528Z,3.59
2023-03-06T09:02:53.678Z,3.69
2023-03-06T09:05:21.103Z,3.55
2023-03-06T09:07:48.286Z,3.56
2023-03-06T09:10:17.966Z,3.46
2023-03-06T09:12:51.305Z,3.40
2023-03-06T09:15:20.508Z,3.47
2023-03-06T09:17:49.187Z,3.41
2023-03-06T09:20:17.200Z,3.52
2023-03-06T09:22:44.453Z,3.54
2023-03-06T09:25:12.222Z,3.37
2023-03-06T09:27:39.751Z,3.29
2023-03-06T09:30:08.763Z,2.97
2023-03-06T09:32:35.967Z,2.90
2023-03-06T09:35:05.328Z,2.79
2023-03-06T09:37:33.889Z,2.80
2023-03-06T09:40:01.948Z,2.68
2023-03-06T09:42:29.271Z,2.59
2023-03-06T09:44:59.870Z,2.58
2023-03-06T09:47:44.992Z,2.52
2023-03-06T09:50:23.966Z,2.49
2023-03-06T09:53:03.338Z,2.39
2023-03-06T09:55:32.349Z,2.44
2023-03-06T09:58:06.812Z,2.45
2023-03-06T10:00:38.352Z,2.67
2023-03-06T10:03:16.003Z,2.77
2023-03-06T10:05:49.986Z,2.93
2023-03-06T10:08:23.598Z,3.06
2023-03-06T10:10:58.550Z,3.13
2023-03-06T10:13:30.326Z,3.38
2023-03-06T10:16:06.295Z,3.61
2023-03-06T10:18:33.637Z,3.95
2023-03-06T10:21:18.798Z,4.23
2023-03-06T10:23:52.941Z,4.46
2023-03-06T10:26:23.726Z,4.58
2023-03-06T10:29:03.940Z,4.91
2023-03-06T10:31:34.303Z,5.10
2023-03-06T10:34:15.250Z,5.23
2023-03-06T10:36:44.024Z,5.10
2023-03-06T10:39:15.724Z,5.24
2023-03-06T10:41:44.715Z,5.39
2023-03-06T10:44:23.763Z,5.18
2023-03-06T10:46:53.228Z,5.52
2023-03-06T10:49:29.722Z,5.52
2023-03-06T10:52:00.803Z,5.45
2023-03-06T10:54:32.835Z,5.73
2023-03-06T10:57:19.450Z,6.05
2023-03-06T10:59:54.471Z,5.64
2023-03-06T11:02:26.456Z,5.55
2023-03-06T11:04:54.820Z,5.74
2023-03-06T11:07:26.088Z,5.90
2023-03-06T11:10:02.577Z,5.82
2023-03-06T11:12:31.241Z,5.75
2023-03-06T11:15:18.391Z,5.76
2023-03-06T11:17:54.410Z,5.65
2023-03-06T11:20:23.395Z,5.69
2023-03-06T11:22:56.000Z,5.43
2023-03-06T11:25:29.811Z,5.72
2023-03-06T11:28:01.854Z,5.75
2023-03-06T11:30:37.377Z,5.86
2023-03-06T11:33:14.925Z,6.06
2023-03-06T11:35:54.382Z,6.30
2023-03-06T11:38:30.551Z,6.34
2023-03-06T11:41:00.240Z,6.43
2023-03-06T11:43:35.518Z,6.17
2023-03-06T11:46:10.270Z,6.23
2023-03-06T11:48:43.495Z,6.45
2023-03-06T11:51:14.464Z,6.67
2023-03-06T11:53:43.263Z,6.78
2023-03-06T11:56:26.872Z,6.99
2023-03-06T11:59:03.360Z,6.87
2023-03-06T12:01:35.088Z,6.92
2023-03-06T12:04:24.309Z,6.41
2023-03-06T12:07:06.050Z,6.02
2023-03-06T12:09:46.009Z,6.18
2023-03-06T12:12:47.538Z,6.46
2023-03-06T12:15:41.748Z,6.46
2023-03-06T12:18:25.463Z,6.13
2023-03-06T12:21:03.105Z,5.85
2023-03-06T12:23:47.054Z,5.54
2023-03-06T12:26:34.432Z,4.92
2023-03-06T12:29:13.578Z,5.00
2023-03-06T12:31:56.157Z,4.89
2023-03-06T12:34:40.483Z,5.16
2023-03-06T12:37:20.458Z,5.53
2023-03-06T12:40:05.219Z,5.93
2023-03-06T12:43:04.908Z,6.25
2023-03-06T12:45:33.431Z,5.98
2023-03-06T12:48:01.349Z,6.45
2023-03-06T12:50:30.257Z,6.23
2023-03-06T12:53:00.412Z,6.42
2023-03-06T12:55:30.255Z,6.23
2023-03-06T12:58:42.626Z,6.43
2023-03-06T13:01:13.969Z,6.60
2023-03-06T13:04:02.502Z,6.68
2023-03-06T13:06:54.412Z,6.94
2023-03-06T13:09:31.329Z,6.63
2023-03-06T13:12:27.676Z,6.62
2023-03-06T13:14:59.235Z,6.37
2023-03-06T13:17:35.597Z,6.09
2023-03-06T13:20:29.129Z,5.92
2023-03-06T13:22:56.508Z,5.78
2023-03-06T13:25:48.318Z,5.77
2023-03-06T13:28:40.111Z,5.84
2023-03-06T13:31:18.220Z,5.94
2023-03-06T13:33:58.196Z,5.95
2023-03-06T13:36:28.803Z,6.20
2023-03-06T13:38:58.361Z,6.38
2023-03-06T13:41:56.949Z,6.48
2023-03-06T13:44:42.238Z,6.69
2023-03-06T13:47:29.634Z,6.63
2023-03-06T13:49:57.909Z,6.79
2023-03-06T13:52:38.125Z,6.88
2023-03-06T13:55:18.501Z,7.01
2023-03-06T13:58:04.749Z,6.90
2023-03-06T14:00:54.009Z,6.96
2023-03-06T14:03:57.494Z,6.98
2023-03-06T14:06:50.495Z,7.16
2023-03-06T14:09:26.219Z,6.98
2023-03-06T14:11:58.203Z,7.10
2023-03-06T18:09:37.282Z,2.96
2023-03-06T18:12:04.905Z,2.96
2023-03-06T18:14:32.082Z,3.05
2023-03-06T18:16:59.313Z,3.17
2023-03-06T18:19:26.601Z,3.23
2023-03-06T18:21:53.768Z,3.15
2023-03-06T18:24:20.951Z,2.91
2023-03-06T18:26:49.489Z,2.78
2023-03-06T18:29:16.650Z,2.86
2023-03-06T18:31:43.987Z,2.86
2023-03-06T18:34:13.164Z,2.90
2023-03-06T18:36:41.669Z,2.86
2023-03-06T18:39:11.421Z,2.86
2023-03-06T18:41:38.877Z,2.79
2023-03-06T18:44:07.964Z,2.73
2023-03-06T18:46:36.968Z,2.65
2023-03-06T18:49:04.801Z,2.62
2023-03-06T18:51:32.190Z,2.63
2023-03-06T18:54:00.634Z,2.55
2023-03-06T18:56:28.161Z,2.58
2023-03-06T18:58:55.365Z,2.61
2023-03-06T19:01:24.056Z,2.57
2023-03-06T19:03:51.324Z,2.60
2023-03-06T19:06:18.509Z,2.56
2023-03-06T19:08:45.732Z,2.57
2023-03-06T19:11:15.365Z,2.56
2023-03-06T19:13:43.583Z,2.51
2023-03-06T19:16:16.937Z,2.46
2023-03-06T19:18:45.536Z,2.43
2023-03-06T19:21:15.026Z,2.48
2023-03-06T19:23:42.738Z,2.45
2023-03-06T19:26:10.876Z,2.43
2023-03-06T19:28:40.354Z,2.45
2023-03-06T19:31:09.537Z,2.40
2023-03-06T19:33:36.866Z,2.38
2023-03-06T19:36:07.326Z,2.41
2023-03-06T19:38:34.542Z,2.46
2023-03-06T19:41:01.967Z,2.44
2023-03-06T19:43:30.141Z,2.50
2023-03-06T19:45:57.968Z,2.51
2023-03-06T19:48:25.183Z,2.53
2023-03-06T19:50:52.338Z,2.54
2023-03-06T19:53:20.830Z,2.51
2023-03-06T19:55:48.017Z,2.55
2023-03-06T19:58:15.196Z,2.56
2023-03-06T20:00:42.372Z,2.61
2023-03-06T20:03:09.510Z,2.58
2023-03-06T20:05:36.903Z,2.60
2023-03-06T20:08:04.458Z,2.55
2023-03-06T20:10:36.287Z,2.61
2023-03-06T20:13:03.289Z,2.59
2023-03-06T20:15:30.395Z,2.56
2023-03-06T20:17:57.606Z,2.53
2023-03-06T20:20:24.762Z,2.54
2023-03-06T20:22:51.904Z,2.56
2023-03-06T20:25:19.123Z,2.50
2023-03-06T20:27:47.678Z,2.49
2023-03-06T20:30:15.160Z,2.49
2023-03-06T20:32:42.314Z,2.42
2023-03-06T20:35:09.537Z,2.39
2023-03-06T20:37:37.738Z,2.34
2023-03-06T20:40:06.553Z,2.30
2023-03-06T20:42:33.796Z,2.17
2023-03-06T20:45:02.818Z,2.16
2023-03-06T20:47:29.956Z,2.08
2023-03-06T20:49:57.131Z,2.01
2023-03-06T20:52:24.393Z,1.98
2023-03-06T20:54:51.531Z,1.84
2023-03-06T20:57:18.710Z,1.82
2023-03-06T20:59:45.889Z,1.76
2023-03-06T21:02:14.467Z,1.67
2023-03-06T21:04:41.692Z,1.58
2023-03-06T21:07:08.904Z,1.50
2023-03-06T21:09:36.081Z,1.44
2023-03-06T21:12:03.901Z,1.41
2023-03-06T21:14:31.414Z,1.34
2023-03-06T21:16:58.597Z,1.32
2023-03-06T21:19:27.209Z,1.21
2023-03-06T21:21:54.658Z,1.16
2023-03-06T21:24:21.802Z,1.10
2023-03-06T21:26:49.010Z,1.04
2023-03-06T21:29:16.162Z,0.97
2023-03-06T21:31:43.394Z,0.92
2023-03-06T21:34:10.651Z,0.83
2023-03-06T21:36:39.234Z,0.78
2023-03-06T21:39:06.534Z,0.73
2023-03-06T21:41:33.996Z,0.71
2023-03-06T21:44:02.383Z,0.63
2023-03-06T21:46:29.873Z,0.61
2023-03-06T21:48:57.275Z,0.59
2023-03-06T21:51:25.605Z,0.58
2023-03-06T21:53:54.997Z,0.57
2023-03-06T21:56:24.006Z,0.56
2023-03-06T21:58:51.339Z,0.50
2023-03-06T22:01:21.163Z,0.45
2023-03-06T22:03:48.524Z,0.44
2023-03-06T22:06:17.871Z,0.42
2023-03-06T22:08:45.474Z,0.37
2023-03-06T22:11:15.679Z,0.36
2023-03-06T22:13:43.487Z,0.33
2023-03-06T22:16:11.231Z,0.29
2023-03-06T22:18:39.110Z,0.24
2023-03-06T22:21:07.500Z,0.23
2023-03-06T22:23:34.735Z,0.23
2023-03-06T22:26:02.608Z,0.20
2023-03-06T22:28:31.606Z,0.21
2023-03-06T22:31:03.798Z,0.19
2023-03-06T22:33:31.129Z,0.18
2023-03-06T22:36:01.522Z,0.19
2023-03-06T22:38:28.709Z,0.14
2023-03-06T22:40:56.538Z,0.16
2023-03-06T22:43:23.759Z,0.18
2023-03-06T22:45:52.324Z,0.18
2023-03-06T22:48:20.287Z,0.21
2023-03-06T22:50:47.421Z,0.20
2023-03-06T22:53:14.588Z,0.23
2023-03-06T22:55:41.725Z,0.23
2023-03-06T22:58:08.955Z,0.28
2023-03-06T23:00:42.014Z,0.30
2023-03-06T23:03:10.537Z,0.30
2023-03-06T23:05:40.443Z,0.34
2023-03-06T23:08:07.604Z,0.37
2023-03-06T23:10:37.132Z,0.39
2023-03-06T23:13:23.183Z,0.43
2023-03-06T23:16:09.519Z,0.46
2023-03-06T23:18:56.353Z,0.47
2023-03-06T23:21:42.285Z,0.50
2023-03-06T23:24:28.223Z,0.54
2023-03-06T23:26:55.448Z,0.58
2023-03-06T23:29:22.665Z,0.61
2023-03-06T23:31:49.911Z,0.62
2023-03-06T23:34:18.437Z,0.61
2023-03-06T23:36:45.686Z,0.62
2023-03-06T23:39:13.036Z,0.66
2023-03-06T23:41:40.409Z,0.70
2023-03-06T23:44:07.723Z,0.71
2023-03-06T23:46:35.065Z,0.72
2023-03-06T23:49:02.785Z,0.75
2023-03-06T23:51:31.338Z,0.77
2023-03-06T23:53:59.969Z,0.80
2023-03-06T23:56:28.431Z,0.83
2023-03-06T23:58:55.852Z,0.88
